sensor_id;sensor_type;location;lat;lon;timestamp;pressure;altitude;pressure_sealevel;temperature;humidity
13312;BME280;34033;48.672;9.376;2023-04-15T00:01:59;97585.06;;;8.32;61.35
13312;BME280;34033;48.672;9.376;2023-04-15T00:04:24;97589.44;;;8.30;61.53
13312;BME280;34033;48.672;9.376;2023-04-15T00:06:50;97587.03;;;8.28;59.92
13312;BME280;34033;48.672;9.376;2023-04-15T00:09:17;97585.03;;;8.25;59.84
13312;BME280;34033;48.672;9.376;2023-04-15T00:11:43;97575.88;;;8.25;60.56
13312;BME280;34033;48.672;9.376;2023-04-15T00:14:09;97585.00;;;8.22;60.32
13312;BME280;34033;48.672;9.376;2023-04-15T00:16:34;97573.09;;;8.14;60.24
13312;BME280;34033;48.672;9.376;2023-04-15T00:19:00;97576.66;;;8.11;60.87
13312;BME280;34033;48.672;9.376;2023-04-15T00:21:25;97577.44;;;8.08;60.63
13312;BME280;34033;48.672;9.376;2023-04-15T00:23:53;97583.78;;;8.02;61.19
13312;BME280;34033;48.672;9.376;2023-04-15T00:26:18;97586.56;;;7.94;61.69
13312;BME280;34033;48.672;9.376;2023-04-15T00:28:44;97580.59;;;7.92;62.43
13312;BME280;34033;48.672;9.376;2023-04-15T00:31:10;97579.38;;;7.90;62.61
13312;BME280;34033;48.672;9.376;2023-04-15T00:33:35;97581.38;;;7.89;62.83
13312;BME280;34033;48.672;9.376;2023-04-15T00:36:01;97578.19;;;7.84;62.55
13312;BME280;34033;48.672;9.376;2023-04-15T00:38:28;97580.97;;;7.80;62.29
13312;BME280;34033;48.672;9.376;2023-04-15T00:40:53;97573.78;;;7.79;62.72
13312;BME280;34033;48.672;9.376;2023-04-15T00:43:19;97577.38;;;7.80;62.53
13312;BME280;34033;48.672;9.376;2023-04-15T00:45:45;97579.38;;;7.76;62.87
13312;BME280;34033;48.672;9.376;2023-04-15T00:48:11;97571.41;;;7.71;62.85
13312;BME280;34033;48.672;9.376;2023-04-15T00:50:37;97588.06;;;7.67;62.92
13312;BME280;34033;48.672;9.376;2023-04-15T00:53:02;97582.06;;;7.62;62.53
13312;BME280;34033;48.672;9.376;2023-04-15T00:55:28;97586.44;;;7.59;63.08
13312;BME280;34033;48.672;9.376;2023-04-15T00:57:53;97582.88;;;7.62;63.60
13312;BME280;34033;48.672;9.376;2023-04-15T01:00:19;97586.47;;;7.63;63.72
13312;BME280;34033;48.672;9.376;2023-04-15T01:02:45;97583.69;;;7.63;63.83
13312;BME280;34033;48.672;9.376;2023-04-15T01:05:10;97595.22;;;7.65;62.85
13312;BME280;34033;48.672;9.376;2023-04-15T01:07:36;97586.88;;;7.65;63.19
13312;BME280;34033;48.672;9.376;2023-04-15T01:10:04;97588.47;;;7.66;62.94
13312;BME280;34033;48.672;9.376;2023-04-15T01:12:31;97594.03;;;7.66;63.47
13312;BME280;34033;48.672;9.376;2023-04-15T01:14:58;97583.69;;;7.63;62.89
13312;BME280;34033;48.672;9.376;2023-04-15T01:17:24;97589.22;;;7.59;63.19
13312;BME280;34033;48.672;9.376;2023-04-15T01:19:50;97584.84;;;7.58;62.70
13312;BME280;34033;48.672;9.376;2023-04-15T01:22:16;97593.19;;;7.54;62.73
13312;BME280;34033;48.672;9.376;2023-04-15T01:24:49;97580.47;;;7.53;62.45
13312;BME280;34033;48.672;9.376;2023-04-15T01:27:16;97583.63;;;7.52;63.08
13312;BME280;34033;48.672;9.376;2023-04-15T01:29:41;97583.63;;;7.52;63.05
13312;BME280;34033;48.672;9.376;2023-04-15T01:32:07;97586.81;;;7.50;63.18
13312;BME280;34033;48.672;9.376;2023-04-15T01:34:32;97583.59;;;7.45;63.21
13312;BME280;34033;48.672;9.376;2023-04-15T01:36:57;97578.81;;;7.38;63.25
13312;BME280;34033;48.672;9.376;2023-04-15T01:39:23;97580.81;;;7.38;62.39
13312;BME280;34033;48.672;9.376;2023-04-15T01:41:48;97574.81;;;7.36;62.08
13312;BME280;34033;48.672;9.376;2023-04-15T01:44:13;97584.34;;;7.31;62.07
13312;BME280;34033;48.672;9.376;2023-04-15T01:46:39;97582.75;;;7.30;62.13
13312;BME280;34033;48.672;9.376;2023-04-15T01:49:04;97587.50;;;7.26;62.93
13312;BME280;34033;48.672;9.376;2023-04-15T01:51:30;97580.31;;;7.22;62.34
13312;BME280;34033;48.672;9.376;2023-04-15T01:53:56;97583.06;;;7.18;62.04
13312;BME280;34033;48.672;9.376;2023-04-15T01:56:21;97591.81;;;7.17;62.66
13312;BME280;34033;48.672;9.376;2023-04-15T01:58:48;97581.09;;;7.15;63.14
13312;BME280;34033;48.672;9.376;2023-04-15T02:01:14;97574.34;;;7.16;63.33
13312;BME280;34033;48.672;9.376;2023-04-15T02:03:41;97577.50;;;7.11;63.51
13312;BME280;34033;48.672;9.376;2023-04-15T02:06:06;97573.13;;;7.10;63.75
13312;BME280;34033;48.672;9.376;2023-04-15T02:08:32;97570.28;;;7.06;63.53
13312;BME280;34033;48.672;9.376;2023-04-15T02:10:57;97574.66;;;7.07;63.65
13312;BME280;34033;48.672;9.376;2023-04-15T02:13:22;97564.34;;;7.04;63.90
13312;BME280;34033;48.672;9.376;2023-04-15T02:15:49;97561.94;;;7.03;63.82
13312;BME280;34033;48.672;9.376;2023-04-15T02:18:15;97571.47;;;7.02;63.62
13312;BME280;34033;48.672;9.376;2023-04-15T02:20:41;97570.28;;;6.99;63.44
13312;BME280;34033;48.672;9.376;2023-04-15T02:23:08;97582.50;;;6.88;63.45
13312;BME280;34033;48.672;9.376;2023-04-15T02:25:33;97573.72;;;6.82;63.37
13312;BME280;34033;48.672;9.376;2023-04-15T02:27:58;97573.31;;;6.80;64.09
13312;BME280;34033;48.672;9.376;2023-04-15T02:30:24;97574.13;;;6.81;63.67
13312;BME280;34033;48.672;9.376;2023-04-15T02:32:50;97580.84;;;6.80;64.73
13312;BME280;34033;48.672;9.376;2023-04-15T02:35:15;97565.75;;;6.77;64.77
13312;BME280;34033;48.672;9.376;2023-04-15T02:37:43;97563.38;;;6.76;64.68
13312;BME280;34033;48.672;9.376;2023-04-15T02:40:10;97566.88;;;6.65;65.52
13312;BME280;34033;48.672;9.376;2023-04-15T02:42:40;97561.69;;;6.64;64.52
13312;BME280;34033;48.672;9.376;2023-04-15T02:45:06;97572.78;;;6.60;64.20
13312;BME280;34033;48.672;9.376;2023-04-15T02:47:32;97567.22;;;6.60;64.50
13312;BME280;34033;48.672;9.376;2023-04-15T02:49:58;97567.22;;;6.60;64.52
13312;BME280;34033;48.672;9.376;2023-04-15T02:52:25;97564.06;;;6.62;64.26
13312;BME280;34033;48.672;9.376;2023-04-15T02:54:50;97558.47;;;6.58;64.79
13312;BME280;34033;48.672;9.376;2023-04-15T02:57:16;97563.97;;;6.51;64.70
13312;BME280;34033;48.672;9.376;2023-04-15T02:59:41;97560.03;;;6.52;64.20
13312;BME280;34033;48.672;9.376;2023-04-15T03:02:06;97568.34;;;6.52;64.17
13312;BME280;34033;48.672;9.376;2023-04-15T03:04:32;97563.94;;;6.44;64.19
13312;BME280;34033;48.672;9.376;2023-04-15T03:06:57;97563.94;;;6.44;64.59
13312;BME280;34033;48.672;9.376;2023-04-15T03:09:23;97569.44;;;6.37;65.02
13312;BME280;34033;48.672;9.376;2023-04-15T03:11:48;97579.34;;;6.38;64.67
13312;BME280;34033;48.672;9.376;2023-04-15T03:14:15;97578.19;;;6.39;64.34
13312;BME280;34033;48.672;9.376;2023-04-15T03:16:40;97578.94;;;6.40;64.75
13312;BME280;34033;48.672;9.376;2023-04-15T03:19:06;97568.25;;;6.38;64.96
13312;BME280;34033;48.672;9.376;2023-04-15T03:21:31;97568.25;;;6.38;64.97
13312;BME280;34033;48.672;9.376;2023-04-15T03:23:57;97571.41;;;6.37;65.18
13312;BME280;34033;48.672;9.376;2023-04-15T03:26:29;97573.38;;;6.36;64.83
13312;BME280;34033;48.672;9.376;2023-04-15T03:28:55;97576.16;;;6.36;64.90
13312;BME280;34033;48.672;9.376;2023-04-15T03:31:20;97569.44;;;6.37;65.78
13312;BME280;34033;48.672;9.376;2023-04-15T03:33:46;97581.69;;;6.36;65.56
13312;BME280;34033;48.672;9.376;2023-04-15T03:36:11;97576.56;;;6.38;65.52
13312;BME280;34033;48.672;9.376;2023-04-15T03:38:36;97572.19;;;6.37;65.81
13312;BME280;34033;48.672;9.376;2023-04-15T03:41:02;97567.03;;;6.36;65.79
13312;BME280;34033;48.672;9.376;2023-04-15T03:43:27;97578.94;;;6.36;65.86
13312;BME280;34033;48.672;9.376;2023-04-15T03:45:52;97565.41;;;6.35;65.53
13312;BME280;34033;48.672;9.376;2023-04-15T03:48:17;97576.13;;;6.33;65.29
13312;BME280;34033;48.672;9.376;2023-04-15T03:50:43;97567.00;;;6.32;65.19
13312;BME280;34033;48.672;9.376;2023-04-15T03:53:08;97568.19;;;6.31;64.65
13312;BME280;34033;48.672;9.376;2023-04-15T03:55:34;97569.72;;;6.28;64.86
13312;BME280;34033;48.672;9.376;2023-04-15T03:57:59;97571.72;;;6.28;65.50
13312;BME280;34033;48.672;9.376;2023-04-15T04:00:24;97570.13;;;6.27;65.23
13312;BME280;34033;48.672;9.376;2023-04-15T04:02:50;97568.53;;;6.26;65.30
13312;BME280;34033;48.672;9.376;2023-04-15T04:05:15;97572.91;;;6.27;64.95
13312;BME280;34033;48.672;9.376;2023-04-15T04:07:40;97574.88;;;6.26;65.31
13312;BME280;34033;48.672;9.376;2023-04-15T04:10:06;97571.31;;;6.26;65.50
13312;BME280;34033;48.672;9.376;2023-04-15T04:12:31;97578.81;;;6.22;64.71
13312;BME280;34033;48.672;9.376;2023-04-15T04:14:57;97585.09;;;6.15;64.78
13312;BME280;34033;48.672;9.376;2023-04-15T04:17:22;97587.84;;;6.12;65.07
13312;BME280;34033;48.672;9.376;2023-04-15T04:19:47;97595.38;;;6.15;65.36
13312;BME280;34033;48.672;9.376;2023-04-15T04:22:13;97588.66;;;6.16;64.95
13312;BME280;34033;48.672;9.376;2023-04-15T04:24:38;97598.97;;;6.15;65.64
13312;BME280;34033;48.672;9.376;2023-04-15T04:27:04;97605.25;;;6.12;65.25
13312;BME280;34033;48.672;9.376;2023-04-15T04:29:29;97602.47;;;6.09;65.30
13312;BME280;34033;48.672;9.376;2023-04-15T04:31:55;97599.69;;;6.09;65.38
13312;BME280;34033;48.672;9.376;2023-04-15T04:34:20;97601.66;;;6.08;65.31
13312;BME280;34033;48.672;9.376;2023-04-15T04:36:45;97605.22;;;6.09;66.17
13312;BME280;34033;48.672;9.376;2023-04-15T04:39:11;97596.16;;;6.12;65.53
13312;BME280;34033;48.672;9.376;2023-04-15T04:41:36;97605.66;;;6.11;65.45
13312;BME280;34033;48.672;9.376;2023-04-15T04:44:01;97605.22;;;6.09;65.27
13312;BME280;34033;48.672;9.376;2023-04-15T04:46:27;97601.66;;;6.08;65.07
13312;BME280;34033;48.672;9.376;2023-04-15T04:48:53;97621.44;;;6.07;64.98
13312;BME280;34033;48.672;9.376;2023-04-15T04:51:18;97611.47;;;5.99;65.08
13312;BME280;34033;48.672;9.376;2023-04-15T04:53:43;97610.31;;;6.00;65.58
13312;BME280;34033;48.672;9.376;2023-04-15T04:56:09;97615.84;;;6.00;65.42
13312;BME280;34033;48.672;9.376;2023-04-15T04:58:34;97615.84;;;6.00;65.70
13312;BME280;34033;48.672;9.376;2023-04-15T05:01:00;97617.41;;;5.97;65.53
13312;BME280;34033;48.672;9.376;2023-04-15T05:03:27;97618.19;;;5.98;65.06
13312;BME280;34033;48.672;9.376;2023-04-15T05:05:52;97615.78;;;5.96;65.55
13312;BME280;34033;48.672;9.376;2023-04-15T05:08:18;97614.59;;;5.94;65.55
13312;BME280;34033;48.672;9.376;2023-04-15T05:10:44;97611.03;;;5.97;65.75
13312;BME280;34033;48.672;9.376;2023-04-15T05:13:09;97614.25;;;5.99;65.98
13312;BME280;34033;48.672;9.376;2023-04-15T05:15:35;97596.44;;;6.00;66.29
13312;BME280;34033;48.672;9.376;2023-04-15T05:18:01;97606.34;;;6.01;65.98
13312;BME280;34033;48.672;9.376;2023-04-15T05:20:26;97618.28;;;6.05;66.42
13312;BME280;34033;48.672;9.376;2023-04-15T05:22:52;97604.81;;;6.07;66.31
13312;BME280;34033;48.672;9.376;2023-04-15T05:25:17;97610.13;;;6.22;67.68
13312;BME280;34033;48.672;9.376;2023-04-15T05:27:43;97616.34;;;6.53;69.82
13312;BME280;34033;48.672;9.376;2023-04-15T05:30:08;97616.13;;;6.72;66.12
13312;BME280;34033;48.672;9.376;2023-04-15T05:32:34;97609.09;;;6.89;64.13
13312;BME280;34033;48.672;9.376;2023-04-15T05:34:59;97615.94;;;7.02;64.50
13312;BME280;34033;48.672;9.376;2023-04-15T05:37:25;97616.84;;;7.17;63.99
13312;BME280;34033;48.672;9.376;2023-04-15T05:39:50;97617.66;;;7.28;63.26
13312;BME280;34033;48.672;9.376;2023-04-15T05:42:16;97617.75;;;7.38;63.35
13312;BME280;34033;48.672;9.376;2023-04-15T05:44:41;97614.59;;;7.50;63.65
13312;BME280;34033;48.672;9.376;2023-04-15T05:47:07;97615.06;;;7.60;62.85
13312;BME280;34033;48.672;9.376;2023-04-15T05:49:32;97623.84;;;7.69;61.91
13312;BME280;34033;48.672;9.376;2023-04-15T05:51:58;97625.06;;;7.78;61.44
13312;BME280;34033;48.672;9.376;2023-04-15T05:54:23;97621.91;;;7.83;61.41
13312;BME280;34033;48.672;9.376;2023-04-15T05:56:49;97629.84;;;7.88;61.35
13312;BME280;34033;48.672;9.376;2023-04-15T05:59:14;97623.53;;;7.91;60.53
13312;BME280;34033;48.672;9.376;2023-04-15T06:01:39;97623.53;;;7.95;60.08
13312;BME280;34033;48.672;9.376;2023-04-15T06:04:05;97618.00;;;7.99;60.49
13312;BME280;34033;48.672;9.376;2023-04-15T06:06:30;97611.66;;;8.12;61.74
13312;BME280;34033;48.672;9.376;2023-04-15T06:08:56;97618.88;;;8.31;60.84
13312;BME280;34033;48.672;9.376;2023-04-15T06:11:22;97624.84;;;8.40;60.37
13312;BME280;34033;48.672;9.376;2023-04-15T06:13:48;97624.47;;;8.42;58.94
13312;BME280;34033;48.672;9.376;2023-04-15T06:16:13;97614.88;;;8.28;58.74
13312;BME280;34033;48.672;9.376;2023-04-15T06:18:38;97616.84;;;8.28;59.34
13312;BME280;34033;48.672;9.376;2023-04-15T06:21:04;97624.06;;;8.36;59.36
13312;BME280;34033;48.672;9.376;2023-04-15T06:23:33;97620.50;;;8.43;58.89
13312;BME280;34033;48.672;9.376;2023-04-15T06:25:58;97622.06;;;8.40;59.36
13312;BME280;34033;48.672;9.376;2023-04-15T06:28:24;97626.06;;;8.43;58.78
13312;BME280;34033;48.672;9.376;2023-04-15T06:30:49;97621.69;;;8.56;59.26
13312;BME280;34033;48.672;9.376;2023-04-15T06:33:14;97623.28;;;9.06;71.00
13312;BME280;34033;48.672;9.376;2023-04-15T06:35:40;97620.81;;;10.90;83.46
13312;BME280;34033;48.672;9.376;2023-04-15T06:38:05;97624.69;;;12.15;69.53
13312;BME280;34033;48.672;9.376;2023-04-15T06:40:31;97622.69;;;13.19;59.36
13312;BME280;34033;48.672;9.376;2023-04-15T06:42:56;97623.53;;;12.93;52.48
13312;BME280;34033;48.672;9.376;2023-04-15T06:45:21;97624.03;;;12.34;50.76
13312;BME280;34033;48.672;9.376;2023-04-15T06:47:47;97626.75;;;11.77;51.09
13312;BME280;34033;48.672;9.376;2023-04-15T06:50:12;97624.13;;;11.22;51.46
13312;BME280;34033;48.672;9.376;2023-04-15T06:52:37;97627.25;;;10.83;51.93
13312;BME280;34033;48.672;9.376;2023-04-15T06:55:03;97621.88;;;10.58;52.20
13312;BME280;34033;48.672;9.376;2023-04-15T06:57:29;97625.69;;;10.23;53.12
13312;BME280;34033;48.672;9.376;2023-04-15T06:59:54;97638.94;;;10.01;53.81
13312;BME280;34033;48.672;9.376;2023-04-15T07:02:20;97633.44;;;9.84;54.50
13312;BME280;34033;48.672;9.376;2023-04-15T07:04:45;97631.53;;;9.63;54.95
13312;BME280;34033;48.672;9.376;2023-04-15T07:07:11;97620.38;;;9.56;55.97
13312;BME280;34033;48.672;9.376;2023-04-15T07:09:37;97626.81;;;9.35;56.21
13312;BME280;34033;48.672;9.376;2023-04-15T07:12:02;97622.84;;;9.22;56.32
13312;BME280;34033;48.672;9.376;2023-04-15T07:14:28;97625.25;;;9.16;56.37
13312;BME280;34033;48.672;9.376;2023-04-15T07:16:53;97614.09;;;9.13;57.19
13312;BME280;34033;48.672;9.376;2023-04-15T07:19:18;97627.25;;;9.12;57.41
13312;BME280;34033;48.672;9.376;2023-04-15T07:21:44;97621.69;;;9.09;57.78
13312;BME280;34033;48.672;9.376;2023-04-15T07:24:09;97613.31;;;9.09;57.83
13312;BME280;34033;48.672;9.376;2023-04-15T07:26:35;97626.84;;;9.10;58.08
13312;BME280;34033;48.672;9.376;2023-04-15T07:29:00;97620.84;;;9.15;57.58
13312;BME280;34033;48.672;9.376;2023-04-15T07:31:25;97623.66;;;9.23;57.57
13312;BME280;34033;48.672;9.376;2023-04-15T07:33:51;97613.25;;;9.34;57.75
13312;BME280;34033;48.672;9.376;2023-04-15T07:36:17;97617.22;;;9.47;57.58
13312;BME280;34033;48.672;9.376;2023-04-15T07:38:43;97615.19;;;9.54;57.11
13312;BME280;34033;48.672;9.376;2023-04-15T07:41:08;97614.78;;;9.63;57.00
13312;BME280;34033;48.672;9.376;2023-04-15T07:43:34;97620.28;;;9.77;56.72
13312;BME280;34033;48.672;9.376;2023-04-15T07:46:00;97609.50;;;9.83;55.42
13312;BME280;34033;48.672;9.376;2023-04-15T07:48:25;97621.03;;;9.88;55.77
13312;BME280;34033;48.672;9.376;2023-04-15T07:50:51;97619.41;;;9.94;55.34
13312;BME280;34033;48.672;9.376;2023-04-15T07:53:16;97614.59;;;9.98;54.73
13312;BME280;34033;48.672;9.376;2023-04-15T07:55:42;97616.97;;;10.03;54.84
13312;BME280;34033;48.672;9.376;2023-04-15T07:58:07;97615.75;;;10.12;54.96
13312;BME280;34033;48.672;9.376;2023-04-15T08:00:33;97602.16;;;10.21;54.45
13312;BME280;34033;48.672;9.376;2023-04-15T08:02:58;97614.47;;;10.30;53.94
13312;BME280;34033;48.672;9.376;2023-04-15T08:05:23;97604.88;;;10.31;53.84
13312;BME280;34033;48.672;9.376;2023-04-15T08:07:50;97604.41;;;10.43;53.64
13312;BME280;34033;48.672;9.376;2023-04-15T08:10:15;97595.94;;;10.54;53.14
13312;BME280;34033;48.672;9.376;2023-04-15T08:12:41;97592.69;;;10.59;52.85
13312;BME280;34033;48.672;9.376;2023-04-15T08:15:07;97598.56;;;10.79;52.72
13312;BME280;34033;48.672;9.376;2023-04-15T08:17:33;97588.81;;;10.94;52.71
13312;BME280;34033;48.672;9.376;2023-04-15T08:19:58;97595.41;;;11.14;52.76
13312;BME280;34033;48.672;9.376;2023-04-15T08:22:24;97590.97;;;11.20;52.01
13312;BME280;34033;48.672;9.376;2023-04-15T08:24:49;97599.22;;;11.35;51.79
13312;BME280;34033;48.672;9.376;2023-04-15T08:27:15;97591.97;;;11.37;51.27
13312;BME280;34033;48.672;9.376;2023-04-15T08:29:41;97591.16;;;11.40;51.78
13312;BME280;34033;48.672;9.376;2023-04-15T08:32:06;97591.41;;;11.53;51.40
13312;BME280;34033;48.672;9.376;2023-04-15T08:34:31;97586.00;;;11.69;50.84
13312;BME280;34033;48.672;9.376;2023-04-15T08:36:57;97593.91;;;11.81;50.38
13312;BME280;34033;48.672;9.376;2023-04-15T08:39:22;97587.00;;;11.89;50.35
13312;BME280;34033;48.672;9.376;2023-04-15T08:41:59;97596.94;;;11.94;49.27
13312;BME280;34033;48.672;9.376;2023-04-15T08:44:32;97588.88;;;11.99;49.69
13312;BME280;34033;48.672;9.376;2023-04-15T08:47:00;97586.66;;;12.14;49.18
13312;BME280;34033;48.672;9.376;2023-04-15T08:49:28;97592.91;;;12.25;49.75
13312;BME280;34033;48.672;9.376;2023-04-15T08:51:54;97589.84;;;12.43;50.00
13312;BME280;34033;48.672;9.376;2023-04-15T08:54:21;97584.94;;;12.50;48.72
13312;BME280;34033;48.672;9.376;2023-04-15T08:56:47;97583.97;;;12.61;48.84
13312;BME280;34033;48.672;9.376;2023-04-15T08:59:13;97587.63;;;12.58;48.60
13312;BME280;34033;48.672;9.376;2023-04-15T09:01:39;97579.91;;;12.65;49.05
13312;BME280;34033;48.672;9.376;2023-04-15T09:04:05;97576.53;;;12.74;49.25
13312;BME280;34033;48.672;9.376;2023-04-15T09:06:32;97582.00;;;12.84;48.92
13312;BME280;34033;48.672;9.376;2023-04-15T09:08:58;97570.63;;;12.91;48.99
13312;BME280;34033;48.672;9.376;2023-04-15T09:11:23;97579.66;;;13.03;48.72
13312;BME280;34033;48.672;9.376;2023-04-15T09:13:49;97578.66;;;13.16;48.43
13312;BME280;34033;48.672;9.376;2023-04-15T09:16:14;97577.09;;;13.35;48.39
13312;BME280;34033;48.672;9.376;2023-04-15T09:18:40;97579.56;;;13.53;47.84
13312;BME280;34033;48.672;9.376;2023-04-15T09:21:11;97578.06;;;13.48;47.70
13312;BME280;34033;48.672;9.376;2023-04-15T09:23:37;97586.56;;;13.45;46.69
13312;BME280;34033;48.672;9.376;2023-04-15T09:26:03;97586.28;;;13.59;47.82
13312;BME280;34033;48.672;9.376;2023-04-15T09:28:30;97585.25;;;13.69;47.42
13312;BME280;34033;48.672;9.376;2023-04-15T09:31:00;97582.19;;;13.83;47.16
13312;BME280;34033;48.672;9.376;2023-04-15T09:33:27;97587.84;;;13.99;46.94
13312;BME280;34033;48.672;9.376;2023-04-15T09:36:01;97591.78;;;14.22;47.08
13312;BME280;34033;48.672;9.376;2023-04-15T09:38:26;97585.84;;;14.36;46.41
13312;BME280;34033;48.672;9.376;2023-04-15T09:40:52;97589.25;;;14.27;46.63
13312;BME280;34033;48.672;9.376;2023-04-15T09:43:18;97581.09;;;14.69;50.82
13312;BME280;34033;48.672;9.376;2023-04-15T09:45:51;97582.78;;;14.82;46.07
13312;BME280;34033;48.672;9.376;2023-04-15T09:50:45;97586.72;;;15.01;44.57
13312;BME280;34033;48.672;9.376;2023-04-15T09:53:15;97580.72;;;15.15;44.09
13312;BME280;34033;48.672;9.376;2023-04-15T09:55:57;97579.41;;;15.20;42.99
13312;BME280;34033;48.672;9.376;2023-04-15T09:58:32;97582.94;;;15.08;43.31
13312;BME280;34033;48.672;9.376;2023-04-15T10:01:08;97582.13;;;15.07;43.30
13312;BME280;34033;48.672;9.376;2023-04-15T10:03:39;97575.94;;;15.28;43.21
13312;BME280;34033;48.672;9.376;2023-04-15T10:06:06;97578.50;;;15.23;42.29
13312;BME280;34033;48.672;9.376;2023-04-15T10:08:37;97583.63;;;15.12;41.86
13312;BME280;34033;48.672;9.376;2023-04-15T10:11:06;97572.03;;;15.10;41.60
13312;BME280;34033;48.672;9.376;2023-04-15T10:13:35;97582.75;;;15.15;42.24
13312;BME280;34033;48.672;9.376;2023-04-15T10:16:14;97580.53;;;15.67;51.52
13312;BME280;34033;48.672;9.376;2023-04-15T10:18:46;97568.59;;;16.05;44.32
13312;BME280;34033;48.672;9.376;2023-04-15T10:21:12;97586.19;;;15.67;41.74
13312;BME280;34033;48.672;9.376;2023-04-15T10:23:46;97580.59;;;15.35;40.40
13312;BME280;34033;48.672;9.376;2023-04-15T10:26:14;97588.66;;;14.88;40.97
13312;BME280;34033;48.672;9.376;2023-04-15T10:28:41;97601.19;;;14.67;41.35
13312;BME280;34033;48.672;9.376;2023-04-15T10:31:06;97605.28;;;14.66;42.02
13312;BME280;34033;48.672;9.376;2023-04-15T10:33:33;97600.50;;;14.63;41.51
13312;BME280;34033;48.672;9.376;2023-04-15T10:35:59;97605.47;;;14.39;41.63
13312;BME280;34033;48.672;9.376;2023-04-15T10:38:36;97613.34;;;14.80;42.24
13312;BME280;34033;48.672;9.376;2023-04-15T10:43:52;97610.19;;;14.78;40.96
13312;BME280;34033;48.672;9.376;2023-04-15T10:46:23;97607.38;;;14.78;41.45
13312;BME280;34033;48.672;9.376;2023-04-15T10:48:51;97610.81;;;15.02;41.25
13312;BME280;34033;48.672;9.376;2023-04-15T10:51:30;97604.03;;;15.16;40.52
13312;BME280;34033;48.672;9.376;2023-04-15T10:53:59;97602.44;;;15.31;40.42
13312;BME280;34033;48.672;9.376;2023-04-15T10:56:27;97601.00;;;15.39;39.67
13312;BME280;34033;48.672;9.376;2023-04-15T10:58:52;97607.47;;;15.07;40.04
13312;BME280;34033;48.672;9.376;2023-04-15T11:01:21;97609.69;;;15.16;40.50
13312;BME280;34033;48.672;9.376;2023-04-15T11:03:49;97600.34;;;15.19;40.89
13312;BME280;34033;48.672;9.376;2023-04-15T11:06:15;97608.34;;;15.20;41.15
13312;BME280;34033;48.672;9.376;2023-04-15T11:11:18;97605.97;;;14.86;40.96
13312;BME280;34033;48.672;9.376;2023-04-15T11:13:51;97608.88;;;14.83;40.11
13312;BME280;34033;48.672;9.376;2023-04-15T11:16:19;97617.06;;;14.93;39.70
13312;BME280;34033;48.672;9.376;2023-04-15T11:18:54;97604.06;;;14.99;40.38
13312;BME280;34033;48.672;9.376;2023-04-15T11:21:24;97613.88;;;15.24;40.83
13312;BME280;34033;48.672;9.376;2023-04-15T11:23:50;97607.63;;;15.32;40.22
13312;BME280;34033;48.672;9.376;2023-04-15T11:26:15;97611.38;;;15.58;40.60
13312;BME280;34033;48.672;9.376;2023-04-15T11:28:43;97610.50;;;15.61;39.37
13312;BME280;34033;48.672;9.376;2023-04-15T11:31:16;97600.63;;;15.69;38.14
13312;BME280;34033;48.672;9.376;2023-04-15T11:33:47;97628.59;;;15.15;37.99
13312;BME280;34033;48.672;9.376;2023-04-15T11:36:17;97623.41;;;14.97;38.07
13312;BME280;34033;48.672;9.376;2023-04-15T11:38:43;97619.34;;;14.98;38.52
13312;BME280;34033;48.672;9.376;2023-04-15T11:41:10;97616.81;;;15.04;38.76
13312;BME280;34033;48.672;9.376;2023-04-15T11:43:36;97637.84;;;15.16;38.36
13312;BME280;34033;48.672;9.376;2023-04-15T11:46:01;97629.00;;;15.30;38.41
13312;BME280;34033;48.672;9.376;2023-04-15T11:48:32;97624.72;;;15.25;38.28
13312;BME280;34033;48.672;9.376;2023-04-15T11:50:59;97635.16;;;15.41;37.88
13312;BME280;34033;48.672;9.376;2023-04-15T11:53:39;97628.97;;;15.62;37.54
13312;BME280;34033;48.672;9.376;2023-04-15T11:56:06;97625.00;;;15.76;38.74
13312;BME280;34033;48.672;9.376;2023-04-15T11:58:34;97628.56;;;15.93;38.37
13312;BME280;34033;48.672;9.376;2023-04-15T12:01:01;97628.09;;;15.94;37.53
13312;BME280;34033;48.672;9.376;2023-04-15T12:03:37;97629.44;;;16.31;37.05
13312;BME280;34033;48.672;9.376;2023-04-15T12:06:20;97631.19;;;16.54;37.71
13312;BME280;34033;48.672;9.376;2023-04-15T12:11:41;97633.38;;;16.34;38.38
13312;BME280;34033;48.672;9.376;2023-04-15T12:16:54;97659.34;;;15.22;40.45
13312;BME280;34033;48.672;9.376;2023-04-15T12:19:30;97673.78;;;14.56;43.04
13312;BME280;34033;48.672;9.376;2023-04-15T12:22:04;97681.94;;;14.31;46.13
13312;BME280;34033;48.672;9.376;2023-04-15T12:24:31;97680.34;;;13.90;47.43
13312;BME280;34033;48.672;9.376;2023-04-15T12:27:10;97700.59;;;13.58;47.05
13312;BME280;34033;48.672;9.376;2023-04-15T12:29:38;97692.97;;;13.59;49.98
13312;BME280;34033;48.672;9.376;2023-04-15T12:32:07;97683.31;;;13.83;48.63
13312;BME280;34033;48.672;9.376;2023-04-15T12:34:53;97685.78;;;14.20;49.42
13312;BME280;34033;48.672;9.376;2023-04-15T12:37:19;97687.13;;;14.52;49.45
13312;BME280;34033;48.672;9.376;2023-04-15T12:39:46;97686.69;;;14.89;52.85
13312;BME280;34033;48.672;9.376;2023-04-15T12:42:13;97689.72;;;15.15;46.48
13312;BME280;34033;48.672;9.376;2023-04-15T12:44:39;97699.38;;;14.97;45.67
13312;BME280;34033;48.672;9.376;2023-04-15T12:47:06;97707.47;;;14.95;46.63
13312;BME280;34033;48.672;9.376;2023-04-15T12:49:32;97708.22;;;14.80;47.02
13312;BME280;34033;48.672;9.376;2023-04-15T12:51:59;97716.03;;;14.72;47.43
13312;BME280;34033;48.672;9.376;2023-04-15T12:54:25;97730.97;;;14.69;48.15
13312;BME280;34033;48.672;9.376;2023-04-15T12:56:51;97745.00;;;14.30;49.96
13312;BME280;34033;48.672;9.376;2023-04-15T12:59:17;97772.03;;;13.34;53.21
13312;BME280;34033;48.672;9.376;2023-04-15T13:01:43;97775.66;;;12.74;57.84
13312;BME280;34033;48.672;9.376;2023-04-15T13:04:08;97786.97;;;12.33;60.46
13312;BME280;34033;48.672;9.376;2023-04-15T13:06:34;97792.84;;;12.08;59.82
13312;BME280;34033;48.672;9.376;2023-04-15T13:08:59;97791.34;;;11.96;61.25
13312;BME280;34033;48.672;9.376;2023-04-15T13:11:26;97798.59;;;11.94;60.56
13312;BME280;34033;48.672;9.376;2023-04-15T13:13:55;97800.13;;;11.57;61.73
13312;BME280;34033;48.672;9.376;2023-04-15T13:16:21;97802.47;;;11.62;64.00
13312;BME280;34033;48.672;9.376;2023-04-15T13:18:47;97789.00;;;11.95;63.48